createdAt,value
2019-05-12T00:00:29.693Z,10.03
2019-05-12T00:02:59.116Z,8.63
2019-05-12T00:05:27.786Z,8.60
2019-05-12T00:07:54.514Z,7.70
2019-05-12T00:10:21.372Z,6.55
2019-05-12T00:12:48.674Z,8.15
2019-05-12T00:15:18.779Z,7.08
2019-05-12T00:17:45.100Z,8.75
2019-05-12T00:20:12.214Z,8.70
2019-05-12T00:22:50.167Z,7.90
2019-05-12T00:25:18.111Z,10.35
2019-05-12T00:27:48.257Z,10.40
2019-05-12T00:30:18.411Z,10.23
2019-05-12T00:32:47.755Z,8.83
2019-05-12T00:35:18.260Z,8.15
2019-05-12T00:37:45.460Z,9.55
2019-05-12T00:40:12.450Z,8.55
2019-05-12T00:42:39.898Z,10.60
2019-05-12T00:45:08.083Z,11.75
2019-05-12T00:47:35.791Z,8.13
2019-05-12T00:50:04.903Z,8.95
2019-05-12T00:52:32.001Z,10.50
2019-05-12T00:54:59.058Z,11.70
2019-05-12T00:57:25.856Z,9.18
2019-05-12T00:59:52.723Z,9.58
2019-05-12T01:02:19.787Z,9.90
2019-05-12T01:04:48.698Z,9.18
2019-05-12T01:07:15.419Z,11.75
2019-05-12T01:09:42.939Z,10.75
2019-05-12T01:12:09.706Z,9.98
2019-05-12T01:14:38.392Z,11.00
2019-05-12T01:17:05.300Z,10.38
2019-05-12T01:19:33.109Z,12.43
2019-05-12T01:22:00.481Z,14.63
2019-05-12T01:24:28.238Z,12.28
2019-05-12T01:26:58.581Z,11.80
2019-05-12T01:29:28.017Z,10.23
2019-05-12T01:32:14.116Z,11.30
2019-05-12T01:34:40.914Z,12.73
2019-05-12T01:37:23.100Z,14.23
2019-05-12T01:39:52.122Z,13.03
2019-05-12T01:42:19.196Z,13.60
2019-05-12T01:44:48.154Z,12.03
2019-05-12T01:47:18.797Z,13.00
2019-05-12T01:49:45.843Z,15.75
2019-05-12T01:52:13.186Z,11.78
2019-05-12T01:54:42.808Z,12.28
2019-05-12T01:57:09.660Z,12.03
2019-05-12T01:59:38.150Z,12.50
2019-05-12T02:02:05.684Z,14.03
2019-05-12T02:04:37.962Z,11.38
2019-05-12T02:07:08.328Z,15.30
2019-05-12T02:09:38.729Z,15.20
2019-05-12T02:12:08.248Z,13.48
2019-05-12T02:14:35.182Z,15.40
2019-05-12T02:17:01.948Z,14.28
2019-05-12T02:19:28.712Z,14.68
2019-05-12T02:21:57.787Z,14.05
2019-05-12T02:24:27.348Z,17.20
2019-05-12T02:26:52.860Z,13.75
2019-05-12T02:29:20.003Z,16.07
2019-05-12T02:31:50.038Z,13.00
2019-05-12T02:34:16.279Z,14.45
2019-05-12T02:36:44.769Z,19.55
2019-05-12T02:39:14.998Z,13.98
2019-05-12T02:41:41.131Z,14.10
2019-05-12T02:44:07.903Z,14.20
2019-05-12T02:46:35.084Z,17.15
2019-05-12T02:49:04.885Z,16.12
2019-05-12T02:51:35.185Z,14.38
2019-05-12T02:54:01.697Z,14.35
2019-05-12T02:56:30.210Z,21.12
2019-05-12T02:59:00.124Z,14.93
2019-05-12T03:01:27.629Z,15.23
2019-05-12T03:03:57.201Z,19.30
2019-05-12T03:06:25.215Z,11.55
2019-05-12T03:08:55.155Z,15.58
2019-05-12T03:11:27.171Z,16.27
2019-05-12T03:13:54.853Z,16.07
2019-05-12T03:16:25.391Z,14.28
2019-05-12T03:18:50.593Z,18.02
2019-05-12T03:21:17.351Z,13.55
2019-05-12T03:23:44.972Z,16.40
2019-05-12T03:26:15.368Z,15.78
2019-05-12T03:28:44.371Z,15.80
2019-05-12T03:31:09.996Z,16.32
2019-05-12T03:33:43.696Z,18.20
2019-05-12T03:36:08.976Z,17.02
2019-05-12T03:38:36.002Z,17.85
2019-05-12T03:41:05.318Z,18.67
2019-05-12T03:43:35.089Z,14.83
2019-05-12T03:46:04.937Z,17.07
2019-05-12T03:48:29.904Z,17.85
2019-05-12T03:50:56.748Z,16.32
2019-05-12T03:53:24.775Z,14.50
2019-05-12T03:55:55.264Z,17.60
2019-05-12T03:58:21.082Z,14.47
2019-05-12T04:00:48.162Z,18.70
2019-05-12T04:03:15.548Z,18.52
2019-05-12T04:05:45.259Z,17.77
2019-05-12T04:08:11.334Z,17.00
2019-05-12T04:10:38.142Z,17.05
2019-05-12T04:13:05.061Z,20.15
2019-05-12T04:15:34.706Z,17.10
2019-05-12T04:18:00.827Z,18.75
2019-05-12T04:20:27.625Z,19.57
2019-05-12T04:22:54.844Z,19.12
2019-05-12T04:25:24.990Z,15.30
2019-05-12T04:27:54.076Z,22.22
2019-05-12T04:30:20.340Z,15.13
2019-05-12T04:32:47.566Z,18.27
2019-05-12T04:35:15.302Z,17.07
2019-05-12T04:37:44.915Z,16.87
2019-05-12T04:40:14.577Z,16.12
2019-05-12T04:42:40.570Z,19.40
2019-05-12T04:45:07.828Z,16.32
2019-05-12T04:47:35.532Z,18.37
2019-05-12T04:50:05.384Z,17.10
2019-05-12T04:52:35.135Z,16.05
2019-05-12T04:55:04.685Z,16.97
2019-05-12T04:57:34.353Z,16.07
2019-05-12T05:00:04.818Z,18.12
2019-05-12T05:02:30.761Z,15.90
2019-05-12T05:04:57.655Z,15.85
2019-05-12T05:07:24.596Z,19.67
2019-05-12T05:09:51.386Z,17.80
2019-05-12T05:12:18.176Z,16.40
2019-05-12T05:14:44.931Z,17.05
2019-05-12T05:17:11.775Z,14.95
2019-05-12T05:19:38.786Z,15.28
2019-05-12T05:22:05.550Z,15.35
2019-05-12T05:24:33.920Z,16.05
2019-05-12T05:27:00.914Z,16.12
2019-05-12T05:29:27.720Z,12.45
2019-05-12T05:31:54.642Z,15.35
2019-05-12T05:34:23.462Z,17.50
2019-05-12T05:36:51.051Z,12.78
2019-05-12T05:39:19.340Z,15.93
2019-05-12T05:41:50.926Z,15.65
2019-05-12T05:44:14.779Z,9.58
2019-05-12T05:46:47.746Z,16.90
2019-05-12T05:49:10.675Z,11.28
2019-05-12T05:51:44.407Z,13.00
2019-05-12T05:54:07.285Z,14.78
2019-05-12T05:56:42.452Z,12.65
2019-05-12T05:59:04.597Z,14.58
2019-05-12T06:01:34.500Z,14.95
2019-05-12T06:04:04.258Z,13.45
2019-05-12T06:06:29.300Z,12.37
2019-05-12T06:08:57.372Z,10.82
2019-05-12T06:11:28.345Z,9.35
2019-05-12T06:13:54.690Z,10.75
2019-05-12T06:16:24.916Z,9.95
2019-05-12T06:18:50.420Z,8.55
2019-05-12T06:21:17.396Z,11.22
2019-05-12T06:23:44.402Z,9.83
2019-05-12T06:26:13.821Z,10.53
2019-05-12T06:28:41.272Z,10.20
2019-05-12T06:31:08.579Z,12.35
2019-05-12T06:33:36.998Z,12.18
2019-05-12T06:36:07.067Z,11.00
2019-05-12T06:38:37.194Z,9.08
2019-05-12T06:41:03.602Z,12.43
2019-05-12T06:43:35.277Z,9.53
2019-05-12T06:45:58.989Z,9.03
2019-05-12T06:48:30.174Z,15.30
2019-05-12T06:50:54.666Z,10.15
2019-05-12T06:53:29.026Z,8.70
2019-05-12T06:55:50.156Z,8.95
2019-05-12T06:58:26.032Z,10.32
2019-05-12T07:00:46.329Z,10.53
2019-05-12T07:03:14.279Z,11.35
2019-05-12T07:05:43.245Z,10.68
2019-05-12T07:08:10.722Z,11.15
2019-05-12T07:10:43.357Z,10.58
2019-05-12T07:13:06.414Z,8.80
2019-05-12T07:15:35.580Z,10.55
2019-05-12T07:18:10.543Z,12.35
2019-05-12T07:20:39.154Z,10.35
2019-05-12T07:23:06.424Z,13.20
2019-05-12T07:25:36.268Z,10.15
2019-05-12T07:28:07.271Z,9.23
2019-05-12T07:30:35.021Z,10.25
2019-05-12T07:33:01.503Z,8.75
2019-05-12T07:35:33.812Z,10.98
2019-05-12T07:38:01.059Z,10.88
2019-05-12T07:40:30.123Z,8.60
2019-05-12T07:42:58.123Z,10.13
2019-05-12T07:45:25.507Z,8.20
2019-05-12T07:47:54.104Z,11.20
2019-05-12T07:50:26.931Z,8.68
2019-05-12T07:52:51.151Z,9.73
2019-05-12T07:55:17.988Z,7.28
2019-05-12T07:57:54.734Z,11.50
2019-05-12T08:00:25.775Z,9.00
2019-05-12T08:02:48.407Z,7.92
2019-05-12T08:05:20.109Z,12.82
2019-05-12T08:07:44.587Z,8.08
2019-05-12T08:10:19.963Z,13.75
2019-05-12T08:12:44.340Z,10.25
2019-05-12T08:15:13.598Z,7.72
2019-05-12T08:17:40.353Z,10.18
2019-05-12T08:20:13.690Z,7.28
2019-05-12T08:22:40.980Z,11.33
2019-05-12T08:25:08.443Z,7.25
2019-05-12T08:27:39.068Z,7.55
2019-05-12T08:30:06.283Z,9.23
2019-05-12T08:32:33.853Z,9.30
2019-05-12T08:35:00.857Z,11.75
2019-05-12T08:37:27.640Z,7.17
2019-05-12T08:40:03.457Z,7.67
2019-05-12T08:42:23.816Z,9.28
2019-05-12T08:44:50.802Z,8.08
2019-05-12T08:47:17.573Z,9.73
2019-05-12T08:49:53.409Z,9.95
2019-05-12T08:52:14.192Z,7.75
2019-05-12T08:54:45.417Z,7.17
2019-05-12T08:57:09.927Z,9.13
2019-05-12T08:59:36.692Z,9.10
2019-05-12T09:02:07.377Z,11.40
2019-05-12T09:04:33.896Z,11.75
2019-05-12T09:07:01.740Z,8.50
2019-05-12T09:09:28.491Z,9.68
2019-05-12T09:11:55.722Z,9.98
2019-05-12T09:14:23.899Z,8.45
2019-05-12T09:16:56.003Z,10.13
2019-05-12T09:19:24.106Z,9.93
2019-05-12T09:21:48.317Z,9.45
2019-05-12T09:24:22.063Z,7.40
2019-05-12T09:26:43.869Z,5.78
2019-05-12T09:29:10.607Z,7.45
2019-05-12T09:31:37.679Z,9.05
2019-05-12T09:34:11.495Z,7.15
2019-05-12T09:36:34.066Z,7.20
2019-05-12T09:39:01.823Z,7.03
2019-05-12T09:41:35.938Z,7.45
2019-05-12T09:44:01.266Z,7.70
2019-05-12T09:46:28.433Z,7.53
2019-05-12T09:48:56.575Z,13.05
2019-05-12T09:51:23.909Z,7.22
2019-05-12T09:53:55.333Z,9.40
2019-05-12T09:56:23.831Z,10.63
2019-05-12T09:58:59.018Z,7.42
2019-05-12T10:01:19.664Z,7.08
2019-05-12T10:03:46.669Z,6.05
2019-05-12T10:06:17.898Z,7.45
2019-05-12T10:08:43.574Z,8.13
2019-05-12T10:11:15.766Z,11.75
2019-05-12T10:13:41.531Z,12.07
2019-05-12T10:16:09.010Z,10.10
2019-05-12T10:18:35.923Z,7.28
2019-05-12T10:21:03.058Z,7.15
2019-05-12T10:23:29.929Z,9.53
2019-05-12T10:26:01.568Z,9.88
2019-05-12T10:28:25.722Z,9.05
2019-05-12T10:30:56.561Z,9.18
2019-05-12T10:33:23.294Z,6.78
2019-05-12T10:35:50.211Z,8.88
2019-05-12T10:38:16.979Z,11.20
2019-05-12T10:40:44.521Z,9.38
2019-05-12T10:43:12.702Z,9.98
2019-05-12T10:45:39.640Z,7.97
2019-05-12T10:48:06.517Z,5.97
2019-05-12T10:50:34.306Z,9.70
2019-05-12T10:53:04.211Z,7.03
2019-05-12T10:55:30.719Z,5.40
2019-05-12T10:58:01.330Z,7.00
2019-05-12T11:00:27.603Z,8.55
2019-05-12T11:02:54.808Z,11.35
2019-05-12T11:05:23.794Z,6.60
2019-05-12T11:07:50.346Z,8.20
2019-05-12T11:10:20.048Z,8.83
2019-05-12T11:12:47.258Z,5.40
2019-05-12T11:15:15.247Z,6.22
2019-05-12T11:17:53.192Z,8.00
2019-05-12T11:20:19.961Z,8.73
2019-05-12T11:22:46.937Z,7.58
2019-05-12T11:25:14.491Z,9.38
2019-05-12T11:27:43.710Z,7.50
2019-05-12T11:30:13.198Z,7.72
2019-05-12T11:32:40.252Z,9.75
2019-05-12T11:35:07.591Z,6.80
2019-05-12T11:37:34.542Z,8.15
2019-05-12T11:40:01.311Z,5.00
2019-05-12T11:42:28.175Z,8.25
2019-05-12T11:44:55.458Z,11.12
2019-05-12T11:47:24.091Z,7.35
2019-05-12T11:49:53.527Z,9.78
2019-05-12T11:52:20.517Z,5.78
2019-05-12T11:54:51.137Z,7.40
2019-05-12T11:57:20.088Z,6.05
2019-05-12T11:59:58.037Z,10.28
2019-05-12T12:02:20.091Z,7.05
2019-05-12T12:04:45.308Z,10.50
2019-05-12T12:07:14.408Z,10.08
2019-05-12T12:09:43.830Z,8.73
2019-05-12T12:12:13.586Z,9.33
2019-05-12T12:14:46.232Z,6.25
2019-05-12T12:17:09.400Z,10.08
2019-05-12T12:19:43.651Z,6.35
2019-05-12T12:22:05.140Z,7.12
2019-05-12T12:24:33.255Z,5.92
2019-05-12T12:27:00.486Z,7.25
2019-05-12T12:29:27.268Z,7.00
2019-05-12T12:31:55.589Z,6.87
2019-05-12T12:34:25.104Z,6.85
2019-05-12T12:36:51.432Z,8.50
2019-05-12T12:39:19.340Z,10.05
2019-05-12T12:41:56.345Z,9.20
2019-05-12T12:44:15.365Z,7.47
2019-05-12T12:46:44.063Z,7.53
2019-05-12T12:49:13.761Z,6.90
2019-05-12T12:51:40.184Z,6.12
2019-05-12T12:54:07.195Z,5.55
2019-05-12T12:56:34.158Z,7.40
2019-05-12T12:59:10.254Z,6.40
2019-05-12T13:01:35.704Z,9.40
2019-05-12T13:04:04.753Z,6.45
2019-05-12T13:06:31.463Z,7.28
2019-05-12T13:08:58.343Z,4.78
2019-05-12T13:11:33.238Z,6.92
2019-05-12T13:13:53.823Z,6.20
2019-05-12T13:16:20.608Z,5.60
2019-05-12T13:18:47.534Z,5.60
2019-05-12T13:21:14.298Z,6.62
2019-05-12T13:23:41.405Z,6.95
2019-05-12T13:26:08.752Z,5.28
2019-05-12T13:28:35.758Z,7.40
2019-05-12T13:31:11.017Z,12.55
2019-05-12T13:33:33.478Z,9.83
2019-05-12T13:36:01.021Z,6.20
2019-05-12T13:38:30.471Z,5.78
2019-05-12T13:40:56.530Z,4.37
2019-05-12T13:43:23.922Z,6.40
2019-05-12T13:45:53.239Z,8.48
2019-05-12T13:48:24.064Z,4.28
2019-05-12T13:50:53.713Z,9.33
2019-05-12T13:53:21.450Z,6.05
2019-05-12T13:55:49.721Z,4.80
2019-05-12T13:58:17.707Z,4.47
2019-05-12T14:00:50.857Z,4.62
2019-05-12T14:03:13.991Z,4.03
2019-05-12T14:05:50.424Z,4.83
2019-05-12T14:08:10.226Z,2.67
2019-05-12T14:10:37.615Z,3.30
2019-05-12T14:13:05.722Z,3.20
2019-05-12T14:15:34.156Z,7.50
2019-05-12T14:18:03.285Z,4.05
2019-05-12T14:20:30.033Z,5.78
2019-05-12T14:22:56.784Z,4.80
2019-05-12T14:25:29.850Z,2.20
2019-05-12T14:27:53.589Z,3.00
2019-05-12T14:30:21.162Z,3.58
2019-05-12T14:32:49.242Z,3.35
2019-05-12T14:35:17.546Z,2.75
2019-05-12T14:37:45.935Z,6.75
2019-05-12T14:40:13.513Z,3.27
2019-05-12T14:42:40.579Z,2.80
2019-05-12T14:45:07.899Z,4.60
2019-05-12T14:47:34.630Z,6.03
2019-05-12T14:50:03.797Z,4.10
2019-05-12T14:52:33.277Z,4.17
2019-05-12T14:55:00.344Z,2.83
2019-05-12T14:57:29.360Z,4.05
2019-05-12T14:59:56.009Z,3.70
2019-05-12T15:02:27.726Z,2.65
2019-05-12T15:04:54.130Z,2.83
2019-05-12T15:07:20.772Z,3.33
2019-05-12T15:09:47.577Z,4.10
2019-05-12T15:12:14.496Z,4.78
2019-05-12T15:14:43.662Z,3.52
2019-05-12T15:17:13.874Z,6.10
2019-05-12T15:19:40.352Z,2.47
2019-05-12T15:22:11.817Z,3.75
2019-05-12T15:24:35.969Z,3.17
2019-05-12T15:27:03.904Z,6.37
2019-05-12T15:29:30.800Z,3.70
2019-05-12T15:31:57.637Z,3.15
2019-05-12T15:34:24.386Z,2.92
2019-05-12T15:36:55.458Z,3.25
2019-05-12T15:39:20.515Z,4.17
2019-05-12T15:41:51.140Z,4.17
2019-05-12T15:44:24.798Z,3.25
2019-05-12T15:46:48.228Z,3.20
2019-05-12T15:49:35.190Z,5.15
2019-05-12T15:52:03.523Z,6.03
2019-05-12T15:54:35.802Z,5.17
2019-05-12T15:57:00.230Z,6.87
2019-05-12T15:59:27.119Z,5.40
2019-05-12T16:02:08.383Z,4.70
2019-05-12T16:04:23.057Z,5.00
2019-05-12T16:06:57.088Z,3.75
2019-05-12T16:09:24.672Z,3.30
2019-05-12T16:11:51.437Z,5.78
2019-05-12T16:14:20.364Z,7.53
2019-05-12T16:16:47.226Z,6.70
2019-05-12T16:19:14.680Z,4.90
2019-05-12T16:21:45.585Z,2.90
2019-05-12T16:24:15.462Z,4.87
2019-05-12T16:26:51.576Z,4.58
2019-05-12T16:29:13.922Z,5.12
2019-05-12T16:31:45.567Z,5.28
2019-05-12T16:34:09.639Z,5.30
2019-05-12T16:36:41.234Z,6.75
2019-05-12T16:39:08.357Z,5.15
2019-05-12T16:41:35.293Z,4.60
2019-05-12T16:44:09.568Z,4.85
2019-05-12T16:46:31.374Z,4.47
2019-05-12T16:48:58.448Z,3.62
2019-05-12T16:51:26.483Z,6.10
2019-05-12T16:53:54.048Z,3.98
2019-05-12T16:56:28.067Z,2.50
2019-05-12T16:58:49.690Z,3.65
2019-05-12T17:01:24.325Z,5.08
2019-05-12T17:03:46.756Z,5.03
2019-05-12T17:06:14.402Z,2.25
2019-05-12T17:08:43.683Z,2.80
2019-05-12T17:11:25.375Z,2.98
2019-05-12T17:13:39.376Z,7.40
2019-05-12T17:16:06.403Z,4.58
2019-05-12T17:18:33.978Z,4.08
2019-05-12T17:21:01.104Z,2.58
2019-05-12T17:23:28.354Z,3.95
2019-05-12T17:25:58.994Z,4.75
2019-05-12T17:28:26.259Z,5.00
2019-05-12T17:30:54.390Z,7.72
2019-05-12T17:33:23.119Z,10.82
2019-05-12T17:35:50.453Z,7.28
2019-05-12T17:38:19.738Z,6.53
2019-05-12T17:40:50.276Z,6.17
2019-05-12T17:43:15.049Z,6.10
2019-05-12T17:45:44.150Z,5.53
2019-05-12T17:48:10.803Z,5.75
2019-05-12T17:50:40.547Z,6.45
2019-05-12T17:53:07.290Z,5.50
2019-05-12T17:55:34.081Z,4.33
2019-05-12T17:58:01.021Z,6.60
2019-05-12T18:00:28.338Z,3.42
2019-05-12T18:03:14.090Z,4.70
2019-05-12T18:05:23.987Z,5.53
2019-05-12T18:07:53.194Z,5.97
2019-05-12T18:10:20.232Z,6.00
2019-05-12T18:12:48.295Z,8.90
2019-05-12T18:15:16.000Z,7.08
2019-05-12T18:17:45.245Z,5.35
2019-05-12T18:20:14.403Z,5.33
2019-05-12T18:22:45.041Z,6.28
2019-05-12T18:25:11.155Z,9.03
2019-05-12T18:27:44.543Z,7.80
2019-05-12T18:30:08.681Z,8.08
2019-05-12T18:32:35.489Z,7.20
2019-05-12T18:35:06.169Z,7.08
2019-05-12T18:37:34.412Z,4.53
2019-05-12T18:40:03.956Z,3.22
2019-05-12T18:42:33.597Z,4.15
2019-05-12T18:45:02.367Z,5.12
2019-05-12T18:47:34.189Z,4.08
2019-05-12T18:49:58.963Z,3.72
2019-05-12T18:52:29.181Z,6.97
2019-05-12T18:54:57.273Z,5.58
2019-05-12T18:57:26.200Z,3.75
2019-05-12T18:59:55.166Z,4.35
2019-05-12T19:02:27.920Z,6.22
2019-05-12T19:04:55.645Z,4.05
2019-05-12T19:07:38.646Z,3.70
2019-05-12T19:09:51.568Z,7.42
2019-05-12T19:12:22.506Z,4.92
2019-05-12T19:14:47.601Z,5.85
2019-05-12T19:17:14.378Z,6.30
2019-05-12T19:19:41.671Z,4.62
2019-05-12T19:22:09.702Z,4.47
2019-05-12T19:24:37.348Z,5.12
2019-05-12T19:27:04.459Z,3.90
2019-05-12T19:29:38.247Z,4.55
2019-05-12T19:32:00.388Z,4.75
2019-05-12T19:34:31.786Z,3.85
2019-05-12T19:36:56.459Z,3.17
2019-05-12T19:39:25.408Z,2.45
2019-05-12T19:41:54.394Z,5.20
2019-05-12T19:44:26.518Z,5.15
2019-05-12T19:46:53.988Z,5.10
2019-05-12T19:49:26.164Z,3.92
2019-05-12T19:51:51.040Z,4.47
2019-05-12T19:54:19.370Z,6.87
2019-05-12T19:56:47.289Z,3.65
2019-05-12T19:59:14.769Z,5.90
2019-05-12T20:01:44.358Z,7.90
2019-05-12T20:04:10.983Z,5.78
2019-05-12T20:06:37.916Z,5.42
2019-05-12T20:09:10.122Z,5.70
2019-05-12T20:11:34.319Z,6.25
2019-05-12T20:14:01.138Z,7.10
2019-05-12T20:16:30.726Z,4.67
2019-05-12T20:18:58.066Z,4.03
2019-05-12T20:21:25.881Z,3.47
2019-05-12T20:23:54.402Z,3.33
2019-05-12T20:26:23.569Z,4.35
2019-05-12T20:28:53.391Z,6.80
2019-05-12T20:31:23.475Z,6.22
2019-05-12T20:33:48.907Z,3.47
2019-05-12T20:36:20.512Z,6.28
2019-05-12T20:38:44.603Z,3.95
2019-05-12T20:41:22.364Z,4.35
2019-05-12T20:43:42.030Z,4.37
2019-05-12T20:46:13.090Z,6.10
2019-05-12T20:48:37.702Z,4.30
2019-05-12T20:51:08.668Z,3.80
2019-05-12T20:53:36.446Z,4.15
2019-05-12T20:56:03.686Z,3.37
2019-05-12T20:58:35.214Z,3.37
2019-05-12T21:01:04.518Z,3.92
2019-05-12T21:03:30.349Z,4.97
2019-05-12T21:06:01.442Z,3.62
2019-05-12T21:08:26.385Z,7.95
2019-05-12T21:10:54.230Z,6.87
2019-05-12T21:13:29.695Z,7.30
2019-05-12T21:15:53.738Z,3.83
2019-05-12T21:18:19.861Z,3.67
2019-05-12T21:20:52.301Z,5.22
2019-05-12T21:23:17.482Z,4.85
2019-05-12T21:25:52.181Z,3.75
2019-05-12T21:28:14.811Z,3.50
2019-05-12T21:30:42.461Z,6.22
2019-05-12T21:33:10.652Z,3.20
2019-05-12T21:35:40.532Z,7.15
2019-05-12T21:38:06.210Z,3.70
2019-05-12T21:40:35.093Z,4.08
2019-05-12T21:43:04.084Z,5.20
2019-05-12T21:45:33.875Z,5.53
2019-05-12T21:48:00.989Z,4.95
2019-05-12T21:50:32.633Z,4.33
2019-05-12T21:52:59.984Z,5.97
2019-05-12T21:55:26.821Z,6.92
2019-05-12T21:57:53.997Z,3.75
2019-05-12T22:00:31.214Z,4.25
2019-05-12T22:03:02.663Z,6.08
2019-05-12T22:05:46.915Z,3.75
2019-05-12T22:07:56.330Z,4.28
2019-05-12T22:10:26.770Z,6.85
2019-05-12T22:12:53.339Z,6.65
2019-05-12T22:15:24.274Z,6.12
2019-05-12T22:17:58.535Z,5.20
2019-05-12T22:20:25.885Z,4.42
2019-05-12T22:22:52.826Z,7.30
2019-05-12T22:25:19.636Z,5.47
2019-05-12T22:27:46.900Z,3.50
2019-05-12T22:30:14.313Z,6.05
2019-05-12T22:32:43.352Z,4.87
2019-05-12T22:35:13.187Z,4.37
2019-05-12T22:37:39.710Z,4.58
2019-05-12T22:40:15.077Z,4.62
2019-05-12T22:42:35.358Z,6.00
2019-05-12T22:45:05.947Z,4.22
2019-05-12T22:47:33.530Z,4.12
2019-05-12T22:50:00.788Z,3.50
2019-05-12T22:52:27.579Z,5.95
2019-05-12T22:54:54.317Z,3.62
2019-05-12T22:57:21.199Z,5.08
2019-05-12T22:59:48.564Z,3.00
2019-05-12T23:02:24.559Z,6.10
2019-05-12T23:04:44.411Z,2.83
2019-05-12T23:07:13.841Z,3.98
2019-05-12T23:09:40.649Z,3.72
2019-05-12T23:12:09.664Z,3.65
2019-05-12T23:14:37.586Z,5.17
2019-05-12T23:17:07.532Z,4.05
2019-05-12T23:19:34.794Z,5.28
2019-05-12T23:22:03.523Z,9.75
2019-05-12T23:24:37.299Z,2.77
2019-05-12T23:27:04.639Z,3.05
2019-05-12T23:29:31.232Z,4.58
2019-05-12T23:32:11.561Z,3.20
2019-05-12T23:34:34.806Z,4.25
2019-05-12T23:37:03.875Z,6.53
2019-05-12T23:39:32.545Z,5.22
2019-05-12T23:41:59.582Z,3.85
2019-05-12T23:44:26.740Z,3.37
2019-05-12T23:46:56.017Z,2.77
2019-05-12T23:49:24.454Z,3.80
2019-05-12T23:51:54.154Z,5.97
2019-05-12T23:54:20.800Z,4.33
2019-05-12T23:56:47.831Z,4.05
2019-05-12T23:59:14.706Z,4.67
